Time;durP1;ratioP1;P1;durP2;ratioP2;P2;SDS_P1;SDS_P2;PMS_P1;PMS_P2;Temp;Humidity;BMP_temperature;BMP_pressure;BME280_temperature;BME280_humidity;BME280_pressure;Samples;Min_cycle;Max_cycle;Signal;HPM_P1;HPM_P2
2023/10/23 00:02:19;;;;;;;33.92;7.70;;;;;;;17.27;100.00;97467.28;5070857;28;20048;-77
2023/10/23 00:04:45;;;;;;;32.28;7.18;;;;;;;17.17;100.00;97455.56;5070675;28;20101;-76
2023/10/23 00:07:10;;;;;;;24.23;5.70;;;;;;;17.20;100.00;97463.41;5070533;28;20476;-77
2023/10/23 00:09:36;;;;;;;28.50;6.55;;;;;;;17.20;100.00;97466.09;5070718;28;20191;-77
2023/10/23 00:12:02;;;;;;;29.38;6.05;;;;;;;17.15;100.00;97463.81;5070504;28;20496;-77
2023/10/23 00:14:28;;;;;;;29.85;6.55;;;;;;;17.16;100.00;97459.28;5070757;28;20019;-76
2023/10/23 00:16:53;;;;;;;28.35;6.68;;;;;;;17.16;100.00;97459.28;5070679;28;20025;-76
2023/10/23 00:19:19;;;;;;;22.20;5.82;;;;;;;17.20;100.00;97458.00;5069794;28;20097;-76
2023/10/23 00:21:44;;;;;;;27.35;6.07;;;;;;;17.10;100.00;97449.03;5070137;28;20025;-76
2023/10/23 00:24:11;;;;;;;29.70;6.38;;;;;;;17.19;100.00;97454.47;5070203;28;20039;-76
2023/10/23 00:26:36;;;;;;;37.10;6.22;;;;;;;17.23;100.00;97449.59;5070339;28;20503;-76
2023/10/23 00:29:02;;;;;;;29.40;5.82;;;;;;;17.19;100.00;97453.59;5070289;28;20028;-77
2023/10/23 00:31:28;;;;;;;25.23;5.72;;;;;;;17.17;100.00;97453.72;5070365;28;20048;-76
2023/10/23 00:33:53;;;;;;;20.02;5.90;;;;;;;17.23;100.00;97449.59;5070007;28;20081;-76
2023/10/23 00:36:19;;;;;;;27.70;5.72;;;;;;;17.28;100.00;97453.63;5070378;28;20443;-78
2023/10/23 00:38:45;;;;;;;23.63;6.85;;;;;;;17.19;100.00;97459.00;5070392;28;20470;-78
2023/10/23 00:41:10;;;;;;;32.20;6.25;;;;;;;17.07;100.00;97446.59;5071413;28;20040;-76
2023/10/23 00:43:36;;;;;;;27.73;6.65;;;;;;;17.12;100.00;97455.13;5053661;28;20028;-76
2023/10/23 00:46:28;;;;;;;26.85;6.00;;;;;;;17.09;100.00;97447.31;5070097;28;20101;-76
2023/10/23 00:48:54;;;;;;;35.15;6.05;;;;;;;17.05;100.00;97453.97;5071126;28;20040;-77
2023/10/23 00:51:19;;;;;;;25.40;6.70;;;;;;;16.90;100.00;97447.22;5071292;28;20510;-76
2023/10/23 00:53:46;;;;;;;26.52;6.30;;;;;;;16.78;100.00;97463.53;5070213;28;20028;-77
2023/10/23 00:56:12;;;;;;;28.42;6.85;;;;;;;16.77;100.00;97469.06;5070184;28;20055;-77
2023/10/23 00:58:42;;;;;;;38.53;6.65;;;;;;;16.73;100.00;97460.38;5070383;28;20166;-77
2023/10/23 01:01:12;;;;;;;30.50;6.40;;;;;;;16.69;100.00;97458.09;5070004;28;20024;-77
2023/10/23 01:03:42;;;;;;;24.63;6.53;;;;;;;16.69;100.00;97469.75;5070391;28;20035;-77
2023/10/23 01:06:09;;;;;;;28.70;6.50;;;;;;;16.65;100.00;97465.59;5053166;28;20025;-77
2023/10/23 01:08:34;;;;;;;28.63;6.10;;;;;;;16.69;100.00;97456.25;5070092;28;20098;-77
2023/10/23 01:11:00;;;;;;;28.17;5.90;;;;;;;16.64;100.00;97461.19;5086817;28;20032;-77
2023/10/23 01:13:26;;;;;;;29.45;6.47;;;;;;;16.68;100.00;97462.63;5069958;28;20115;-76
2023/10/23 01:15:52;;;;;;;29.75;6.20;;;;;;;16.70;100.00;97457.94;5069925;28;20147;-78
2023/10/23 01:18:18;;;;;;;25.88;5.90;;;;;;;16.70;100.00;97468.75;5069865;28;20024;-76
2023/10/23 01:20:44;;;;;;;24.98;6.05;;;;;;;16.78;100.00;97477.06;5069773;28;20112;-76
2023/10/23 01:23:10;;;;;;;31.13;7.15;;;;;;;16.82;100.00;97483.03;5069918;28;20059;-75
2023/10/23 01:25:36;;;;;;;21.88;6.25;;;;;;;16.84;100.00;97485.59;5069913;28;20123;-76
2023/10/23 01:28:02;;;;;;;25.80;5.88;;;;;;;16.76;100.00;97473.59;5069884;28;20028;-76
2023/10/23 01:30:28;;;;;;;24.23;6.40;;;;;;;16.86;100.00;97478.22;5052856;28;20102;-75
2023/10/23 01:32:54;;;;;;;26.40;6.40;;;;;;;16.91;100.00;97481.38;5070001;28;20131;-76
2023/10/23 01:35:20;;;;;;;40.97;6.95;;;;;;;16.95;100.00;97474.72;5073586;28;20484;-75
2023/10/23 01:37:47;;;;;;;20.73;5.60;;;;;;;16.98;100.00;97477.16;5073777;28;20025;-76
2023/10/23 01:40:13;;;;;;;25.67;5.93;;;;;;;16.94;100.00;97478.41;5074950;28;20104;-75
2023/10/23 01:42:39;;;;;;;32.97;6.85;;;;;;;16.82;100.00;97471.38;5073933;28;20052;-76
2023/10/23 01:45:05;;;;;;;26.05;6.63;;;;;;;16.89;100.00;97476.09;5073663;28;20032;-77
2023/10/23 01:47:30;;;;;;;29.60;6.10;;;;;;;16.80;100.00;97485.88;5073584;28;20472;-76
2023/10/23 01:49:56;;;;;;;25.50;6.47;;;;;;;16.65;100.00;97481.81;5056907;28;20071;-75
2023/10/23 01:52:22;;;;;;;29.25;5.88;;;;;;;16.58;100.00;97475.22;5074807;28;20071;-76
2023/10/23 01:54:50;;;;;;;27.00;6.30;;;;;;;16.59;100.00;97476.94;5073717;28;20492;-77
2023/10/23 01:57:15;;;;;;;25.48;6.43;;;;;;;16.51;100.00;97467.78;5056702;28;20143;-78
2023/10/23 01:59:41;;;;;;;22.63;6.15;;;;;;;16.47;100.00;97461.78;5056811;28;20111;-77
2023/10/23 02:02:07;;;;;;;22.00;5.45;;;;;;;16.44;100.00;97451.25;5075015;28;20028;-76
2023/10/23 02:04:34;;;;;;;25.00;6.32;;;;;;;16.49;100.00;97470.59;5073649;28;20032;-76
2023/10/23 02:07:00;;;;;;;35.22;7.30;;;;;;;16.44;100.00;97467.44;5074500;28;20029;-76
2023/10/23 02:09:26;;;;;;;22.80;5.93;;;;;;;16.36;100.00;97466.41;5073254;28;20107;-77
2023/10/23 02:11:52;;;;;;;33.63;6.15;;;;;;;16.43;100.00;97473.81;5073275;28;20055;-77
2023/10/23 02:14:17;;;;;;;35.75;6.80;;;;;;;16.46;100.00;97470.84;5073259;28;20055;-77
2023/10/23 02:16:43;;;;;;;21.70;6.35;;;;;;;16.54;100.00;97473.81;5073022;28;20025;-76
2023/10/23 02:19:08;;;;;;;29.60;7.15;;;;;;;16.60;100.00;97475.97;5073124;28;20025;-77
2023/10/23 02:21:35;;;;;;;34.42;7.13;;;;;;;16.69;100.00;97477.88;5056005;28;20049;-76
2023/10/23 02:24:00;;;;;;;41.13;10.43;;;;;;;16.70;100.00;97478.72;5073119;28;20028;-75
2023/10/23 02:26:27;;;;;;;47.88;13.27;;;;;;;16.75;100.00;97479.16;5073888;28;20035;-76
2023/10/23 02:28:53;;;;;;;41.53;10.85;;;;;;;16.76;100.00;97476.31;5072701;28;20238;-76
2023/10/23 02:31:19;;;;;;;44.85;11.13;;;;;;;16.80;100.00;97485.88;5072678;28;20068;-75
2023/10/23 02:33:44;;;;;;;32.83;7.55;;;;;;;16.89;100.00;97480.66;5072702;28;20024;-77
2023/10/23 02:36:10;;;;;;;32.95;6.80;;;;;;;16.95;100.00;97490.94;5074125;28;20411;-77
2023/10/23 02:38:36;;;;;;;25.50;5.97;;;;;;;16.99;100.00;97489.66;5072645;28;20029;-77
2023/10/23 02:41:01;;;;;;;18.65;5.72;;;;;;;16.99;100.00;97482.41;5072602;28;20025;-77
2023/10/23 02:43:27;;;;;;;32.92;7.13;;;;;;;17.00;100.00;97483.25;5074005;28;20028;-78
2023/10/23 02:45:52;;;;;;;30.92;7.32;;;;;;;16.93;100.00;97480.25;5071933;28;20029;-77
2023/10/23 02:48:18;;;;;;;26.50;9.18;;;;;;;16.92;100.00;97488.50;5072700;28;20021;-76
2023/10/23 02:50:56;;;;;;;40.72;9.75;;;;;;;16.90;100.00;97479.66;5072355;28;20024;-77
2023/10/23 02:53:22;;;;;;;50.83;17.77;;;;;;;16.89;100.00;97467.16;5072415;28;20024;-76
2023/10/23 02:55:51;;;;;;;29.02;10.20;;;;;;;16.92;100.00;97475.00;5072361;28;20028;-77
2023/10/23 02:58:17;;;;;;;29.50;7.68;;;;;;;16.98;100.00;97488.78;5072474;28;20024;-76
2023/10/23 03:00:43;;;;;;;29.67;7.07;;;;;;;16.99;100.00;97489.66;5072046;28;20506;-76
2023/10/23 03:03:11;;;;;;;29.08;8.55;;;;;;;16.92;100.00;97491.19;5072212;28;20024;-77
2023/10/23 03:05:37;;;;;;;28.63;7.82;;;;;;;16.85;100.00;97487.31;5088720;28;20078;-76
2023/10/23 03:08:03;;;;;;;26.50;6.63;;;;;;;16.81;100.00;97492.13;5072315;28;20569;-77
2023/10/23 03:10:30;;;;;;;27.80;6.93;;;;;;;16.79;100.00;97496.81;5071931;28;20028;-76
2023/10/23 03:12:55;;;;;;;23.63;6.47;;;;;;;16.72;100.00;97488.41;5071857;28;20111;-76
2023/10/23 03:15:21;;;;;;;23.90;8.20;;;;;;;16.73;100.00;97495.50;5072153;28;20032;-75
2023/10/23 03:17:46;;;;;;;25.70;7.25;;;;;;;16.74;100.00;97491.81;5071729;28;20560;-76
2023/10/23 03:20:12;;;;;;;22.80;6.22;;;;;;;16.82;100.00;97484.88;5088600;28;20080;-77
2023/10/23 03:22:38;;;;;;;29.55;6.63;;;;;;;16.75;100.00;97482.72;5071806;28;20035;-77
2023/10/23 03:25:05;;;;;;;27.23;6.20;;;;;;;16.76;100.00;97483.59;5071658;28;20036;-76
2023/10/23 03:27:31;;;;;;;31.40;6.70;;;;;;;16.74;100.00;97485.53;5071580;28;20508;-76
2023/10/23 03:29:57;;;;;;;26.30;8.63;;;;;;;16.63;100.00;97475.69;5071645;28;20056;-76
2023/10/23 03:32:23;;;;;;;26.90;6.72;;;;;;;16.60;100.00;97486.78;5071740;28;20109;-75
2023/10/23 03:34:50;;;;;;;30.35;7.03;;;;;;;16.45;100.00;97489.91;5071577;28;20024;-76
2023/10/23 03:37:16;;;;;;;37.13;9.38;;;;;;;16.43;100.00;97492.72;5071380;28;20031;-75
2023/10/23 03:39:42;;;;;;;31.50;9.25;;;;;;;16.40;100.00;97490.28;5071229;28;20119;-76
2023/10/23 03:42:08;;;;;;;36.28;9.93;;;;;;;16.30;100.00;97480.44;5070951;28;20556;-77
2023/10/23 03:44:34;;;;;;;38.47;8.50;;;;;;;16.26;100.00;97491.50;5071247;28;20025;-74
2023/10/23 03:47:00;;;;;;;26.92;7.20;;;;;;;16.17;100.00;97492.28;5071297;28;20036;-74
2023/10/23 03:49:33;;;;;;;23.08;7.10;;;;;;;16.13;100.00;97476.47;5072576;28;20028;-74
2023/10/23 03:51:58;;;;;;;37.17;10.90;;;;;;;16.10;100.00;97474.91;5071976;28;20020;-74
2023/10/23 03:54:24;;;;;;;29.95;7.40;;;;;;;16.11;100.00;97486.56;5054569;28;20510;-75
2023/10/23 03:56:50;;;;;;;36.60;7.55;;;;;;;16.12;100.00;97493.63;5070326;28;20541;-76
2023/10/23 03:59:15;;;;;;;25.98;7.15;;;;;;;16.13;100.00;97489.97;5071457;28;20119;-76
2023/10/23 04:01:43;;;;;;;20.98;7.05;;;;;;;16.22;100.00;97484.63;5071173;28;20024;-76
2023/10/23 04:04:11;;;;;;;20.35;7.30;;;;;;;16.25;100.00;97484.38;5087634;28;20024;-75
2023/10/23 04:06:39;;;;;;;27.45;6.93;;;;;;;16.25;100.00;97489.78;5087847;28;20029;-76
2023/10/23 04:09:06;;;;;;;29.85;6.78;;;;;;;16.20;100.00;97489.31;5070835;28;20488;-76
2023/10/23 04:11:32;;;;;;;21.77;6.20;;;;;;;16.16;100.00;97484.31;5071093;28;20458;-76
2023/10/23 04:13:57;;;;;;;34.58;6.72;;;;;;;16.10;100.00;97490.22;5072189;28;20025;-76
2023/10/23 04:16:23;;;;;;;30.92;7.53;;;;;;;16.04;100.00;97483.50;5072122;28;20036;-75
2023/10/23 04:18:49;;;;;;;27.83;8.07;;;;;;;16.02;100.00;97492.72;5070760;28;20107;-76
2023/10/23 04:21:14;;;;;;;29.83;8.35;;;;;;;16.02;100.00;97490.03;5070365;28;20084;-75
2023/10/23 04:23:40;;;;;;;30.35;7.93;;;;;;;16.06;100.00;97494.16;5070661;28;20549;-76
2023/10/23 04:26:07;;;;;;;33.78;9.65;;;;;;;16.10;100.00;97506.41;5070566;28;20029;-75
2023/10/23 04:28:33;;;;;;;41.17;9.32;;;;;;;16.12;100.00;97499.91;5070422;28;20043;-75
2023/10/23 04:30:59;;;;;;;31.70;8.65;;;;;;;16.08;100.00;97503.88;5070594;28;20043;-75
2023/10/23 04:33:25;;;;;;;34.28;10.55;;;;;;;16.12;100.00;97501.72;5070702;28;20032;-75
2023/10/23 04:35:58;;;;;;;32.75;11.52;;;;;;;16.18;100.00;97515.56;5053802;28;20024;-75
2023/10/23 04:38:24;;;;;;;38.85;10.52;;;;;;;16.15;100.00;97515.00;5071517;28;20029;-76
2023/10/23 04:40:50;;;;;;;36.38;9.02;;;;;;;16.18;100.00;97514.75;5070290;28;20028;-75
2023/10/23 04:43:16;;;;;;;34.38;10.07;;;;;;;16.15;100.00;97509.59;5070227;28;20040;-76
2023/10/23 04:45:42;;;;;;;46.15;9.80;;;;;;;16.12;100.00;97520.63;5053513;28;20031;-76
2023/10/23 04:48:08;;;;;;;43.33;10.20;;;;;;;16.13;100.00;97517.81;5070023;28;20399;-76
2023/10/23 04:50:37;;;;;;;17.38;6.95;;;;;;;16.13;100.00;97520.50;5069960;28;20028;-76
2023/10/23 04:53:03;;;;;;;31.05;8.43;;;;;;;16.09;100.00;97516.34;5070316;28;20047;-76
2023/10/23 04:55:36;;;;;;;34.92;8.00;;;;;;;16.09;100.00;97510.09;5053147;28;20060;-76
2023/10/23 04:58:02;;;;;;;34.20;11.65;;;;;;;16.05;100.00;97514.91;5071451;28;20491;-76
2023/10/23 05:00:28;;;;;;;27.35;8.38;;;;;;;16.02;100.00;97514.31;5071380;28;20407;-76
2023/10/23 05:02:54;;;;;;;30.05;8.75;;;;;;;16.06;100.00;97521.13;5070234;28;20036;-76
2023/10/23 05:05:20;;;;;;;30.00;7.30;;;;;;;16.16;100.00;97516.69;5069812;28;20086;-76
2023/10/23 05:07:45;;;;;;;32.95;7.38;;;;;;;16.35;100.00;97524.09;5069882;28;20507;-76
2023/10/23 05:10:11;;;;;;;30.80;7.35;;;;;;;16.43;100.00;97530.53;5069931;28;20115;-76
2023/10/23 05:12:37;;;;;;;32.65;7.03;;;;;;;16.53;100.00;97520.66;5069864;28;20033;-77
2023/10/23 05:15:03;;;;;;;36.78;8.68;;;;;;;16.65;100.00;97530.44;5070120;28;20021;-77
2023/10/23 05:17:29;;;;;;;32.65;7.40;;;;;;;16.70;100.00;97536.28;5069534;28;20115;-76
2023/10/23 05:19:55;;;;;;;40.30;7.55;;;;;;;16.82;100.00;97537.09;5069726;28;20127;-76
2023/10/23 05:22:20;;;;;;;33.65;7.95;;;;;;;16.90;100.00;97539.97;5069746;28;20024;-76
2023/10/23 05:24:46;;;;;;;28.00;7.75;;;;;;;16.97;100.00;97537.56;5069791;28;20067;-76
2023/10/23 05:27:13;;;;;;;23.80;6.72;;;;;;;17.08;100.00;97538.34;5069670;28;20036;-76
2023/10/23 05:29:38;;;;;;;49.30;7.97;;;;;;;17.29;100.00;97541.84;5069679;28;20116;-76
2023/10/23 05:32:04;;;;;;;39.10;7.70;;;;;;;17.46;100.00;97543.06;5069727;28;20032;-76
2023/10/23 05:34:30;;;;;;;36.78;7.55;;;;;;;17.77;100.00;97541.16;5069618;28;20040;-76
2023/10/23 05:36:56;;;;;;;52.38;14.60;;;;;;;18.03;100.00;97538.75;5069779;28;20028;-78
2023/10/23 05:39:21;;;;;;;36.53;11.55;;;;;;;18.47;100.00;97535.50;5069894;28;20090;-80
2023/10/23 05:41:47;;;;;;;39.47;9.60;;;;;;;19.33;100.00;97534.44;5053076;28;20025;-76
2023/10/23 05:44:12;;;;;;;34.45;8.80;;;;;;;19.95;100.00;97534.56;5069805;28;20036;-74
2023/10/23 05:46:38;;;;;;;31.02;9.20;;;;;;;20.44;100.00;97535.91;5069653;28;20025;-76
2023/10/23 05:49:04;;;;;;;32.15;8.00;;;;;;;20.77;100.00;97536.16;5069903;28;20515;-77
2023/10/23 05:51:29;;;;;;;50.58;10.43;;;;;;;20.72;100.00;97542.09;5069915;28;20086;-77
2023/10/23 05:53:56;;;;;;;53.38;13.38;;;;;;;20.57;100.00;97549.09;5069740;28;20507;-76
2023/10/23 05:56:22;;;;;;;60.47;17.48;;;;;;;20.59;100.00;97541.63;5069678;28;20025;-76
2023/10/23 05:58:48;;;;;;;69.80;21.73;;;;;;;20.53;100.00;97539.53;5052914;28;20147;-77
2023/10/23 06:01:14;;;;;;;68.03;18.98;;;;;;;20.96;100.00;97539.53;5070857;28;20036;-76
2023/10/23 06:03:40;;;;;;;44.42;15.63;;;;;;;21.16;100.00;97552.97;5053023;28;20047;-76
2023/10/23 06:06:06;;;;;;;58.75;20.92;;;;;;;20.78;100.00;97552.34;5070587;28;20037;-75
2023/10/23 06:08:31;;;;;;;60.08;19.05;;;;;;;20.43;100.00;97563.22;5052743;28;20036;-77
2023/10/23 06:10:57;;;;;;;68.63;20.50;;;;;;;20.20;100.00;97567.38;5069540;28;20036;-77
2023/10/23 06:13:22;;;;;;;64.65;17.88;;;;;;;20.10;100.00;97563.88;5052707;28;20525;-75
2023/10/23 06:15:48;;;;;;;62.15;16.40;;;;;;;20.21;100.00;97566.41;5069449;28;20047;-76
2023/10/23 06:18:14;;;;;;;44.72;15.45;;;;;;;20.38;100.00;97573.72;5069347;28;20121;-76
2023/10/23 06:20:39;;;;;;;46.50;13.60;;;;;;;20.36;100.00;97579.31;5076027;28;20048;-78
2023/10/23 06:23:05;;;;;;;48.22;14.20;;;;;;;20.45;100.00;97572.09;5074105;28;20113;-77
2023/10/23 06:25:31;;;;;;;41.95;14.23;;;;;;;20.48;100.00;97574.50;5073158;28;20024;-77
2023/10/23 06:27:57;;;;;;;36.92;12.98;;;;;;;20.60;100.00;97586.84;5055952;28;20043;-77
2023/10/23 06:30:23;;;;;;;43.40;12.00;;;;;;;20.44;100.00;97584.81;5056063;28;20131;-78
2023/10/23 06:32:49;;;;;;;52.28;12.73;;;;;;;20.19;100.00;97587.41;5072731;28;20521;-77
2023/10/23 06:35:15;;;;;;;52.70;12.55;;;;;;;20.19;100.00;97592.84;5076179;28;20068;-78
2023/10/23 06:37:41;;;;;;;43.50;14.15;;;;;;;20.30;100.00;97598.09;5058049;28;20024;-79
2023/10/23 06:40:07;;;;;;;56.55;14.95;;;;;;;20.23;100.00;97596.97;5072858;28;20559;-78
2023/10/23 06:42:33;;;;;;;48.33;13.82;;;;;;;20.30;100.00;97598.94;5073269;28;20024;-78
2023/10/23 06:44:59;;;;;;;38.22;13.85;;;;;;;20.31;100.00;97599.78;5071865;28;20090;-77
2023/10/23 06:47:25;;;;;;;47.80;14.98;;;;;;;20.19;100.00;97590.97;5055234;28;20025;-77
2023/10/23 06:49:50;;;;;;;47.53;14.30;;;;;;;20.30;100.00;97600.81;5055084;28;20036;-74
2023/10/23 06:52:16;;;;;;;45.58;14.07;;;;;;;19.98;100.00;97601.28;5054957;28;20028;-74
2023/10/23 06:54:41;;;;;;;44.78;14.15;;;;;;;20.06;100.00;97603.25;5072817;28;20028;-73
2023/10/23 06:57:08;;;;;;;52.22;16.10;;;;;;;20.12;100.00;97610.78;5072623;28;20036;-74
2023/10/23 06:59:34;;;;;;;55.67;16.42;;;;;;;20.12;100.00;97610.78;5071681;28;20070;-73
2023/10/23 07:02:00;;;;;;;41.88;14.02;;;;;;;20.19;100.00;97609.13;5072704;28;20033;-74
2023/10/23 07:04:26;;;;;;;41.95;13.30;;;;;;;20.27;100.00;97606.56;5071378;28;20498;-73
2023/10/23 07:06:53;;;;;;;39.22;14.85;;;;;;;20.24;100.00;97610.38;5071535;28;20375;-72
2023/10/23 07:09:18;;;;;;;48.72;15.05;;;;;;;20.48;100.00;97612.56;5072152;28;20060;-74
2023/10/23 07:11:47;;;;;;;54.72;14.98;;;;;;;20.58;100.00;97615.19;5071287;28;20051;-74
2023/10/23 07:14:13;;;;;;;52.80;13.85;;;;;;;20.52;100.00;97616.66;5072309;28;20055;-73
2023/10/23 07:16:39;;;;;;;36.08;14.82;;;;;;;20.37;100.00;97615.47;5072144;28;20089;-73
2023/10/23 07:19:04;;;;;;;46.50;14.00;;;;;;;20.33;100.00;97616.81;5071039;28;20474;-73
2023/10/23 07:21:30;;;;;;;33.50;12.32;;;;;;;20.43;100.00;97625.72;5071212;28;20047;-74
2023/10/23 07:23:56;;;;;;;39.53;12.23;;;;;;;20.64;100.00;97623.56;5072033;28;20491;-74
2023/10/23 07:26:22;;;;;;;46.00;11.70;;;;;;;20.80;100.00;97620.13;5070870;28;20040;-75
2023/10/23 07:28:47;;;;;;;41.97;11.13;;;;;;;21.23;100.00;97613.88;5071205;28;20096;-76
2023/10/23 07:31:13;;;;;;;42.60;11.35;;;;;;;21.77;100.00;97616.25;5069749;28;20039;-74
2023/10/23 07:33:39;;;;;;;38.95;11.02;;;;;;;22.24;100.00;97607.63;5070957;28;20021;-76
2023/10/23 07:36:06;;;;;;;39.25;10.40;;;;;;;22.15;100.00;97604.84;5070706;28;20028;-75
2023/10/23 07:38:32;;;;;;;39.28;11.75;;;;;;;22.11;100.00;97611.66;5072122;28;20499;-76
2023/10/23 07:40:58;;;;;;;39.25;11.13;;;;;;;22.28;100.00;97612.56;5054189;28;20033;-75
2023/10/23 07:43:27;;;;;;;39.67;10.55;;;;;;;22.30;100.00;97609.69;5053916;28;20089;-74
2023/10/23 07:45:54;;;;;;;41.60;10.13;;;;;;;22.64;100.00;97610.44;5070431;28;20059;-74
2023/10/23 07:48:21;;;;;;;33.33;9.73;;;;;;;22.75;100.00;97612.00;5070214;28;20028;-75
2023/10/23 07:50:47;;;;;;;39.75;10.20;;;;;;;22.82;100.00;97613.03;5087572;28;20029;-73
2023/10/23 07:53:12;;;;;;;37.63;9.50;;;;;;;23.00;100.00;97617.28;5070291;28;20069;-73
2023/10/23 07:55:38;;;;;;;39.05;10.02;;;;;;;23.16;100.00;97605.53;5087412;28;20060;-73
2023/10/23 07:58:04;;;;;;;31.10;9.45;;;;;;;23.38;100.00;97612.16;5070480;28;20136;-74
2023/10/23 08:00:29;;;;;;;40.13;10.13;;;;;;;23.43;100.00;97605.16;5069992;28;20520;-74
2023/10/23 08:02:55;;;;;;;48.83;10.02;;;;;;;23.36;100.00;97600.53;5070319;28;20024;-74
2023/10/23 08:05:21;;;;;;;33.42;9.18;;;;;;;23.22;100.00;97605.66;5071190;28;20115;-75
2023/10/23 08:07:46;;;;;;;27.88;8.73;;;;;;;23.09;100.00;97608.09;5069980;28;20170;-75
2023/10/23 08:10:12;;;;;;;30.25;9.70;;;;;;;23.61;100.00;97616.72;5071061;28;20442;-74
2023/10/23 08:12:38;;;;;;;37.60;9.93;;;;;;;23.92;96.63;97597.69;5070058;28;20031;-74
2023/10/23 08:15:04;;;;;;;32.10;10.00;;;;;;;24.02;95.50;97598.31;5069956;28;20404;-75
2023/10/23 08:17:29;;;;;;;37.20;9.80;;;;;;;23.96;94.97;97593.56;5069756;28;20024;-72
2023/10/23 08:19:55;;;;;;;27.98;8.95;;;;;;;24.34;92.87;97591.00;5071043;28;20048;-72
2023/10/23 08:22:20;;;;;;;33.65;9.20;;;;;;;24.85;89.55;97590.34;5071009;28;20035;-72
2023/10/23 08:24:46;;;;;;;44.50;9.63;;;;;;;25.00;86.92;97594.00;5070935;28;20024;-72
2023/10/23 08:27:11;;;;;;;33.70;8.95;;;;;;;25.74;80.24;97587.63;5070889;28;20036;-73
2023/10/23 08:29:37;;;;;;;26.48;6.93;;;;;;;26.28;70.71;97579.94;5052843;28;20115;-72
2023/10/23 08:32:03;;;;;;;30.42;6.90;;;;;;;25.98;70.56;97575.50;5070970;28;20031;-73
2023/10/23 08:34:28;;;;;;;25.42;6.95;;;;;;;25.67;71.23;97583.94;5069514;28;20016;-72
2023/10/23 08:36:54;;;;;;;22.42;6.47;;;;;;;25.64;70.83;97580.72;5069672;28;20433;-72
2023/10/23 08:39:20;;;;;;;21.13;6.25;;;;;;;25.47;70.71;97579.16;5086386;28;20019;-73
2023/10/23 08:41:46;;;;;;;26.60;4.40;;;;;;;25.01;68.69;97578.41;5069656;28;20100;-72
2023/10/23 08:44:11;;;;;;;16.42;4.82;;;;;;;25.08;69.57;97585.69;5052158;28;20123;-72
2023/10/23 08:46:37;;;;;;;20.10;5.25;;;;;;;24.91;71.44;97583.28;5069343;28;20035;-72
2023/10/23 08:49:06;;;;;;;22.38;5.65;;;;;;;24.85;72.74;97582.16;5069521;28;20044;-72
2023/10/23 08:51:32;;;;;;;22.75;5.57;;;;;;;25.26;70.66;97580.72;5070712;28;20031;-73
2023/10/23 08:54:06;;;;;;;19.65;5.60;;;;;;;25.53;68.43;97572.97;5069380;28;20103;-72
2023/10/23 08:56:36;;;;;;;19.92;6.38;;;;;;;25.55;67.64;97568.16;5069595;28;20030;-75
2023/10/23 08:59:02;;;;;;;25.58;6.60;;;;;;;25.73;67.61;97565.88;5069531;28;20036;-76
2023/10/23 09:01:28;;;;;;;34.42;8.00;;;;;;;25.84;66.03;97560.75;5070240;28;20352;-76
2023/10/23 09:03:54;;;;;;;21.75;7.30;;;;;;;25.94;65.28;97560.47;5069191;28;20415;-77
2023/10/23 09:06:19;;;;;;;30.13;6.20;;;;;;;26.22;63.28;97560.66;5070572;28;20509;-76
2023/10/23 09:08:45;;;;;;;24.17;6.97;;;;;;;26.36;62.02;97566.09;5069341;28;20066;-76
2023/10/23 09:11:11;;;;;;;33.88;7.40;;;;;;;26.52;61.79;97565.00;5067112;28;20032;-72
2023/10/23 09:13:38;;;;;;;32.20;5.63;;;;;;;26.92;59.96;97555.31;5067494;28;20032;-72
2023/10/23 09:16:08;;;;;;;30.27;7.13;;;;;;;27.14;58.13;97548.75;5064600;28;20407;-71
2023/10/23 09:18:43;;;;;;;27.98;5.93;;;;;;;27.33;57.43;97556.28;5082040;28;20035;-71
2023/10/23 09:21:09;;;;;;;19.20;5.22;;;;;;;27.19;55.94;97546.28;5049309;28;20059;-72
2023/10/23 09:23:34;;;;;;;17.40;4.03;;;;;;;27.35;55.62;97545.09;5065076;28;20028;-72
2023/10/23 09:26:00;;;;;;;15.95;5.28;;;;;;;27.84;54.15;97534.03;5065413;28;20412;-72
2023/10/23 09:28:27;;;;;;;24.33;5.50;;;;;;;28.02;53.53;97542.59;5066332;28;20032;-71
2023/10/23 09:30:53;;;;;;;21.00;5.65;;;;;;;28.01;53.42;97535.38;5067289;28;20367;-73
2023/10/23 09:33:19;;;;;;;28.60;5.22;;;;;;;28.15;52.60;97531.66;5066064;28;20028;-72
2023/10/23 09:35:45;;;;;;;19.92;5.07;;;;;;;28.38;51.66;97531.31;5067355;28;20032;-71
2023/10/23 09:38:11;;;;;;;23.38;5.30;;;;;;;28.64;50.99;97525.03;5067130;28;20020;-70
2023/10/23 09:40:37;;;;;;;23.58;4.85;;;;;;;29.40;48.80;97521.72;5066166;28;20086;-71
2023/10/23 09:43:03;;;;;;;25.17;5.25;;;;;;;29.86;47.82;97512.53;5082537;28;20492;-72
2023/10/23 09:45:30;;;;;;;27.75;6.45;;;;;;;30.85;45.47;97510.13;5065980;28;20034;-71
2023/10/23 09:47:58;;;;;;;23.73;5.97;;;;;;;32.77;42.19;97505.09;5065958;28;20044;-72
2023/10/23 09:50:26;;;;;;;17.83;3.92;;;;;;;33.67;39.73;97479.69;5046937;28;20510;-72
2023/10/23 09:52:56;;;;;;;18.33;4.47;;;;;;;34.76;37.45;97489.78;5065946;28;20033;-72
2023/10/23 09:55:26;;;;;;;18.38;5.40;;;;;;;35.82;36.21;97471.25;5066935;28;20012;-72
2023/10/23 09:57:53;;;;;;;27.15;4.50;;;;;;;36.40;34.71;97457.56;5069801;28;20029;-72
2023/10/23 10:00:19;;;;;;;24.50;4.50;;;;;;;36.68;34.35;97461.22;5071031;28;20450;-73
2023/10/23 10:02:55;;;;;;;31.00;4.65;;;;;;;37.14;33.48;97456.94;5069531;28;20028;-72
2023/10/23 10:05:37;;;;;;;15.70;4.05;;;;;;;36.15;34.07;97448.88;5069563;28;20437;-72
2023/10/23 10:08:04;;;;;;;18.05;4.20;;;;;;;35.84;35.17;97457.91;5070844;28;20407;-72
2023/10/23 10:10:32;;;;;;;24.77;5.30;;;;;;;36.71;34.09;97457.91;5069585;28;20403;-72
2023/10/23 10:12:58;;;;;;;21.92;4.88;;;;;;;36.08;34.09;97447.41;5069796;28;20036;-72
2023/10/23 10:15:23;;;;;;;28.52;5.82;;;;;;;35.22;35.23;97443.34;5069398;28;20377;-72
2023/10/23 10:17:50;;;;;;;22.75;5.85;;;;;;;32.77;39.06;97455.19;5069457;28;20111;-71
2023/10/23 10:20:19;;;;;;;38.70;8.48;;;;;;;31.73;40.92;97452.75;5068952;28;20426;-72
2023/10/23 10:22:46;;;;;;;27.42;7.18;;;;;;;30.89;42.65;97448.66;5069270;28;20029;-71
2023/10/23 10:25:12;;;;;;;23.83;5.07;;;;;;;30.18;44.21;97452.75;5070322;28;20119;-72
2023/10/23 10:27:38;;;;;;;23.98;4.88;;;;;;;30.24;44.77;97449.94;5068990;28;20138;-71
2023/10/23 10:30:05;;;;;;;27.45;4.60;;;;;;;30.72;44.21;97449.44;5069390;28;20464;-71
2023/10/23 10:32:33;;;;;;;28.52;6.93;;;;;;;32.29;41.56;97441.41;5068848;28;20024;-72
2023/10/23 10:35:03;;;;;;;21.55;5.75;;;;;;;33.83;38.47;97427.28;5070956;28;20028;-72
2023/10/23 10:37:30;;;;;;;19.23;4.25;;;;;;;34.71;36.73;97428.53;5070317;28;20032;-72
2023/10/23 10:39:55;;;;;;;19.85;4.05;;;;;;;35.57;34.91;97421.63;5068856;28;20020;-72
2023/10/23 10:42:23;;;;;;;13.82;3.80;;;;;;;34.56;36.23;97431.00;5070043;28;20025;-72
2023/10/23 10:45:07;;;;;;;14.00;4.18;;;;;;;34.31;37.21;97433.31;5068748;28;20063;-72
2023/10/23 10:47:54;;;;;;;21.45;4.90;;;;;;;33.71;37.80;97428.16;5069927;28;20033;-71
2023/10/23 10:50:32;;;;;;;22.27;4.63;;;;;;;33.14;38.56;97429.00;5068425;28;20027;-72
2023/10/23 10:53:02;;;;;;;22.08;4.60;;;;;;;32.30;39.85;97432.03;5068807;28;20115;-71
2023/10/23 10:55:28;;;;;;;24.20;5.10;;;;;;;31.90;40.60;97432.53;5069101;28;20062;-70
2023/10/23 10:57:54;;;;;;;16.75;3.70;;;;;;;33.06;39.21;97423.78;5069920;28;20036;-71
2023/10/23 11:00:22;;;;;;;28.20;4.32;;;;;;;34.54;37.11;97413.75;5069670;28;20449;-72
2023/10/23 11:02:48;;;;;;;22.90;5.70;;;;;;;35.47;36.08;97412.28;5088109;28;20202;-72
2023/10/23 11:05:14;;;;;;;33.78;5.95;;;;;;;36.17;34.65;97399.34;5072656;28;20028;-72
2023/10/23 11:07:40;;;;;;;20.42;5.07;;;;;;;36.11;34.34;97403.16;5071049;28;20028;-72
2023/10/23 11:10:06;;;;;;;22.05;4.75;;;;;;;33.96;36.93;97416.75;5072399;28;20036;-72
2023/10/23 11:12:32;;;;;;;30.90;5.63;;;;;;;33.69;37.28;97405.34;5088135;28;20020;-73
2023/10/23 11:14:58;;;;;;;17.60;4.65;;;;;;;32.30;39.27;97415.41;5087773;28;20063;-72